Aérodrome :







RETROUVEZ-NOUS SUR...

 
LOGIN :

S'inscrire | Disclaimer

   EN    FR    IT 

 









Légende :    VFR   VFR Marginal   IFR   IFR Intensif   IFR Très Intensif
Visi : 
Plafond : 
>= 8 km
>= 3000ft
5 à 8 km
1000 à 3000 ft
1500m à 5 km
500 à 1000 ft
800 à 1500m
200 à 500 ft
< 800m
< 200 ft
Symboles :   Orages  Brouillard  Fortes neiges  Fortes précipitations  Vent > 20 kt






- Altitude de l'aérodrome : 16 ft
- Code IATA : FDF


TFFF - Aime Cesaire

DERNIER METAR :
  • 251100Z AUTO 11003KT 080V140 9999 FEW023 BKN039 BKN046 27/24 Q1014

METARs EXPIRÉS :
  • 251030Z AUTO 11005KT 9999 FEW028 27/24 Q1014
  • 251000Z AUTO 09007KT 9999 FEW026 27/24 Q1014
  • 250930Z AUTO VRB02KT 9999 SCT024 SCT030 27/25 Q1013
  • 250900Z AUTO VRB01KT 9999 SCT024 BKN032 BKN039 26/24 Q1013
  • 250830Z AUTO 15007KT 120V190 9999 BKN023/// BKN029/// BKN036/// ///CB 26/24 Q1012

TAF TAF TFFF
Valide du 24 à 18h jusqu'au 25 à 18h UTC


241600Z 2418/2518 10015KT 9999 SCT035
TEMPO 2504/2518 09015G25KT 4000 SHRA SCT020TCU
FIR TTZP / Amérique du Nord



MET'MAP, la Météo Aéronautique d'un coup d'oeil ! - Copyright ORBIFLY Décembre 2007 - Disclaimer

ORBIFLY MET'MAP TEAM :

Programmation & Développement : Alexandra Zaïnal
Sur une idée originale de : Baudouin d'Aumeries
Assistance à la programmation : Marc-Olivier Méhu
Soutien technique & logistique : Manuel Goepfert

Contact : metmap@orbifly.com




SOURCES & CREDITS :

   NOAA